Hlavní strana
METAR-TAF:

METAR-TAF

Letiště :

Mezinárodní letiště Kchun-ming Čchang-šuej

Kchun-ming, Čína

zeměpisná šířka: 25-01N, zeměpisná délka: 102-41E, výška: 1892 m

Aktuální stav počasí

Zpráva byla vytvořena před 13 minutami, v 00:00 UTC
Jihojihozápadní vítr 8 kt
Teplota 14°C
Vlhkost vzduchu 94%
Tlak 1023 hPa
Viditelnost: 8000 m
Skoro jasno ve výšce 2300 ft

METAR: ZPPP 160000Z 21004MPS 8000 FEW023 14/13 Q1023 NOSIG

Čas: 08:13 (00:13 UTC)

Předpověď počasí

Zpráva byla vytvořena před 5 hodinami a 4 minutami, v 19:09 UTC
Předpověď platná od 16 v 00 UTC do 16 v 24 UTC
Jihozápadní vítr 12 kt
Viditelnost 10 km a více
Polojasno ve výšce 2000 ft
Oblačno až skoro zataženo ve výšce 3600 ft

TAF: ZPPP 151909Z 1600/1624 22006MPS 9999 SCT020 BKN036 TX20/1608Z TN13/1623Z

Stav a předpovědi počasí z více než 4 000 letišť (zprávy METAR a TAF).

Červené a žluté tečky na mapě představují dostupné meteorologické stanice.

Když kurzor umístíte na tečku, zobrazí se název stanice.

Pak kliknutím zobrazíte stav a předpověď počasí.

Chcete-li změnit mapu, kliknutím na zelené tlačítko se znaménkem +mapu přiblížíte, kliknutím na zelené tlačítko se znaménkem – mapu oddálíte a kliknutím na zelené šipky přejdete na sousední mapy.


METAR-TAF: